Time;durP1;ratioP1;P1;durP2;ratioP2;P2;SDS_P1;SDS_P2;PMS_P1;PMS_P2;Temp;Humidity;BMP_temperature;BMP_pressure;BME280_temperature;BME280_humidity;BME280_pressure;Samples;Min_cycle;Max_cycle;Signal;HPM_P1;HPM_P2
2022/05/30 00:00:26;;;;;;;9.38;2.72;;;;;;;5.64;100.00;101251.06;1047648;28;20287;-77
2022/05/30 00:01:10;;;;;;;12.43;2.45;;;;;;;5.48;100.00;101248.50;1047364;28;20299;-78
2022/05/30 00:01:42;;;;;;;8.60;2.42;;;;;;;5.55;100.00;101249.47;1047609;28;20660;-77
2022/05/30 00:02:14;;;;;;;6.55;2.33;;;;;;;5.66;100.00;101241.13;1039210;28;20441;-78
2022/05/30 00:02:47;;;;;;;8.23;2.08;;;;;;;5.61;100.00;101254.03;1037767;28;20308;-77
2022/05/30 00:03:19;;;;;;;9.02;1.73;;;;;;;5.71;100.00;101249.34;1037754;28;20654;-77
2022/05/30 00:03:51;;;;;;;4.65;2.25;;;;;;;5.91;100.00;101248.94;1037156;28;20343;-77
2022/05/30 00:04:23;;;;;;;6.38;2.58;;;;;;;5.91;100.00;101252.41;1041863;28;20302;-76
2022/05/30 00:04:54;;;;;;;9.68;2.65;;;;;;;5.65;100.00;101250.06;1035625;28;20292;-77
2022/05/30 00:05:29;;;;;;;7.10;2.28;;;;;;;5.47;100.00;101254.75;1033631;28;20298;-77
2022/05/30 00:06:00;;;;;;;5.22;2.28;;;;;;;5.47;100.00;101252.13;1036071;28;20853;-77
2022/05/30 00:06:32;;;;;;;9.30;2.50;;;;;;;5.51;100.00;101248.16;1040167;28;20691;-78
2022/05/30 00:07:05;;;;;;;9.18;2.50;;;;;;;5.43;100.00;101248.19;1043480;28;20299;-77
2022/05/30 00:07:38;;;;;;;8.88;2.40;;;;;;;5.50;100.00;101251.81;1040488;28;20816;-77
2022/05/30 00:08:09;;;;;;;6.07;2.83;;;;;;;5.55;100.00;101255.56;1047460;28;20306;-78
2022/05/30 00:08:41;;;;;;;6.05;2.15;;;;;;;5.55;100.00;101254.75;1047713;28;20302;-77
2022/05/30 00:09:13;;;;;;;5.55;2.30;;;;;;;5.51;100.00;101254.28;1037436;28;20303;-78
2022/05/30 00:09:47;;;;;;;6.70;2.30;;;;;;;5.67;100.00;101253.34;1043013;28;20310;-77
2022/05/30 00:10:22;;;;;;;5.88;2.65;;;;;;;5.72;100.00;101251.00;1043601;28;20315;-77
2022/05/30 00:10:54;;;;;;;9.95;2.33;;;;;;;5.77;100.00;101247.84;1044825;28;20296;-76
2022/05/30 00:11:27;;;;;;;8.82;2.97;;;;;;;5.88;100.00;101250.91;1047447;28;20298;-77
2022/05/30 00:12:00;;;;;;;8.48;1.95;;;;;;;5.99;100.00;101252.34;1039945;28;20327;-77
2022/05/30 00:12:32;;;;;;;8.63;2.40;;;;;;;6.02;100.00;101248.53;1039921;28;20311;-77
2022/05/30 00:13:03;;;;;;;5.65;2.13;;;;;;;5.99;100.00;101251.53;1043590;28;20812;-78
2022/05/30 00:13:35;;;;;;;5.47;2.05;;;;;;;5.85;100.00;101251.25;1043272;28;20307;-77
2022/05/30 00:14:07;;;;;;;5.90;2.95;;;;;;;5.89;100.00;101249.94;1043315;28;20311;-78
2022/05/30 00:14:39;;;;;;;3.53;2.50;;;;;;;5.83;100.00;101245.31;1043345;28;20295;-77
2022/05/30 00:15:15;;;;;;;7.85;3.05;;;;;;;5.73;100.00;101249.19;1040331;28;20296;-78
2022/05/30 00:15:46;;;;;;;4.65;2.17;;;;;;;5.86;100.00;101242.34;1035645;28;20312;-77
2022/05/30 00:16:21;;;;;;;8.73;2.75;;;;;;;5.88;100.00;101244.78;1035321;28;20359;-77
2022/05/30 00:16:55;;;;;;;7.38;2.15;;;;;;;5.89;100.00;101249.94;1031423;28;20300;-77
2022/05/30 00:17:27;;;;;;;9.13;2.25;;;;;;;5.85;100.00;101245.97;1039018;28;20386;-77
2022/05/30 00:17:59;;;;;;;4.55;2.30;;;;;;;5.82;100.00;101246.31;1042730;28;20295;-78
2022/05/30 00:18:31;;;;;;;8.48;2.85;;;;;;;5.84;100.00;101249.63;1040356;28;20300;-77
2022/05/30 00:19:02;;;;;;;10.25;2.35;;;;;;;5.79;100.00;101245.84;1043275;28;20302;-78
2022/05/30 00:19:37;;;;;;;6.13;2.35;;;;;;;5.69;100.00;101246.06;1040502;28;20370;-77
2022/05/30 00:20:10;;;;;;;7.22;2.20;;;;;;;5.82;100.00;101246.31;1038827;28;20867;-78
2022/05/30 00:20:45;;;;;;;7.28;2.40;;;;;;;5.86;100.00;101244.97;1032446;28;20301;-77
2022/05/30 00:21:22;;;;;;;8.88;2.83;;;;;;;5.73;100.00;101242.06;1034946;28;20339;-78
2022/05/30 00:21:56;;;;;;;6.55;2.67;;;;;;;5.60;100.00;101236.53;1034323;28;20289;-77
2022/05/30 00:22:27;;;;;;;5.20;2.05;;;;;;;5.58;100.00;101238.53;1046501;28;20306;-77
2022/05/30 00:22:59;;;;;;;7.25;2.47;;;;;;;5.68;100.00;101238.31;1047630;28;20648;-78
2022/05/30 00:23:31;;;;;;;11.25;2.72;;;;;;;5.81;100.00;101244.69;1045339;28;20353;-77
2022/05/30 00:24:02;;;;;;;8.20;2.55;;;;;;;5.94;100.00;101238.84;1039496;28;20303;-77
2022/05/30 00:24:34;;;;;;;5.65;2.63;;;;;;;5.95;100.00;101245.75;1039382;28;20296;-77
2022/05/30 00:25:06;;;;;;;4.65;1.88;;;;;;;5.94;100.00;101243.28;1042126;28;20422;-77
2022/05/30 00:25:42;;;;;;;7.13;2.03;;;;;;;5.72;100.00;101240.41;1046240;28;20827;-77
2022/05/30 00:26:13;;;;;;;8.73;2.08;;;;;;;5.73;100.00;101243.88;1047044;28;20788;-77
2022/05/30 00:26:46;;;;;;;3.25;2.17;;;;;;;5.64;100.00;101242.31;1047399;28;21155;-76
2022/05/30 00:27:18;;;;;;;7.13;2.60;;;;;;;5.65;100.00;101243.94;1045905;28;20299;-78
2022/05/30 00:27:49;;;;;;;5.68;2.28;;;;;;;5.65;100.00;101244.78;1043345;28;20303;-77
2022/05/30 00:28:22;;;;;;;6.13;2.33;;;;;;;5.67;100.00;101240.13;1039154;28;20713;-76
2022/05/30 00:28:53;;;;;;;8.05;2.75;;;;;;;5.71;100.00;101238.78;1040079;28;20311;-77
2022/05/30 00:29:31;;;;;;;8.18;2.20;;;;;;;5.75;100.00;101239.25;1042558;28;20308;-78
2022/05/30 00:30:03;;;;;;;12.65;3.25;;;;;;;5.86;100.00;101233.56;1039572;28;20304;-78
2022/05/30 00:30:35;;;;;;;8.77;2.28;;;;;;;6.04;100.00;101233.34;1039197;28;20315;-77
2022/05/30 00:31:11;;;;;;;9.65;2.35;;;;;;;6.18;100.00;101235.19;1035959;28;20304;-77
2022/05/30 00:31:43;;;;;;;6.80;2.72;;;;;;;6.18;100.00;101236.00;1043026;28;20671;-76
2022/05/30 00:32:15;;;;;;;9.60;3.17;;;;;;;6.33;100.00;101229.94;1047359;28;20305;-77
2022/05/30 00:32:47;;;;;;;13.07;3.00;;;;;;;6.45;100.00;101242.56;1047626;28;20297;-78
2022/05/30 00:33:19;;;;;;;6.72;2.35;;;;;;;6.51;100.00;101241.84;1043800;28;20295;-77
2022/05/30 00:33:53;;;;;;;7.70;3.50;;;;;;;6.57;100.00;101236.81;1043587;28;20810;-77
2022/05/30 00:34:26;;;;;;;10.48;3.45;;;;;;;6.37;100.00;101223.31;1046291;28;20294;-78
2022/05/30 00:34:58;;;;;;;10.88;2.83;;;;;;;6.44;100.00;101235.63;1043625;28;20646;-78
2022/05/30 00:35:30;;;;;;;6.72;2.85;;;;;;;6.58;100.00;101234.03;1043213;28;20299;-79
2022/05/30 00:36:02;;;;;;;7.68;2.40;;;;;;;6.39;100.00;101239.81;1041375;28;20335;-78
2022/05/30 00:36:34;;;;;;;2.95;1.88;;;;;;;6.18;100.00;101230.72;1040706;28;20318;-78
2022/05/30 00:37:06;;;;;;;8.02;2.75;;;;;;;6.21;100.00;101229.53;1045410;28;20287;-79
2022/05/30 00:37:37;;;;;;;9.15;2.40;;;;;;;6.41;100.00;101236.00;1047520;28;20711;-78
2022/05/30 00:38:09;;;;;;;6.40;3.03;;;;;;;6.59;100.00;101229.56;1037557;28;20300;-78
2022/05/30 00:38:41;;;;;;;7.45;3.47;;;;;;;6.66;100.00;101230.47;1039044;28;20729;-79
2022/05/30 00:39:13;;;;;;;6.30;2.47;;;;;;;6.72;100.00;101227.09;1034968;28;20289;-76
2022/05/30 00:39:44;;;;;;;6.05;2.50;;;;;;;6.83;100.00;101224.81;1034094;28;20293;-78
2022/05/30 00:40:16;;;;;;;5.13;2.90;;;;;;;6.87;100.00;101230.59;1036712;28;20307;-78
2022/05/30 00:40:47;;;;;;;14.18;3.00;;;;;;;6.84;100.00;101233.56;1035068;28;20297;-78
2022/05/30 00:41:19;;;;;;;9.35;2.72;;;;;;;6.80;100.00;101229.63;1037448;28;20304;-78
2022/05/30 00:41:50;;;;;;;7.03;2.53;;;;;;;6.88;100.00;101232.22;1039173;28;20300;-78
2022/05/30 00:42:24;;;;;;;6.97;2.40;;;;;;;6.90;100.00;101230.22;1039684;28;20300;-77
2022/05/30 00:42:56;;;;;;;9.90;3.92;;;;;;;6.97;100.00;101228.47;1039413;28;20651;-78
2022/05/30 00:43:30;;;;;;;6.90;3.30;;;;;;;6.96;100.00;101232.13;1039210;28;20288;-78
2022/05/30 00:44:02;;;;;;;11.35;3.13;;;;;;;6.84;100.00;101228.28;1031819;28;20289;-77
2022/05/30 00:44:34;;;;;;;8.65;2.42;;;;;;;6.73;100.00;101223.44;1036440;28;20800;-77
2022/05/30 00:45:06;;;;;;;6.88;2.25;;;;;;;6.90;100.00;101227.56;1039174;28;20311;-78
2022/05/30 00:45:38;;;;;;;9.10;2.60;;;;;;;7.02;100.00;101228.75;1039268;28;20315;-79
2022/05/30 00:46:18;;;;;;;9.23;2.97;;;;;;;7.02;100.00;101222.63;1043975;28;20317;-79
2022/05/30 00:46:51;;;;;;;7.25;4.07;;;;;;;6.93;100.00;101229.84;1043779;28;20291;-78
2022/05/30 00:47:25;;;;;;;9.82;3.03;;;;;;;6.76;100.00;101223.06;1047607;28;20294;-79
2022/05/30 00:47:56;;;;;;;5.90;2.40;;;;;;;6.60;100.00;101217.97;1047139;28;20295;-78
2022/05/30 00:48:30;;;;;;;8.23;3.20;;;;;;;6.57;100.00;101224.41;1047394;28;20894;-77
2022/05/30 00:49:07;;;;;;;4.90;2.20;;;;;;;6.63;100.00;101212.31;1040424;28;20431;-78
2022/05/30 00:49:40;;;;;;;7.70;2.85;;;;;;;6.45;100.00;101216.09;1039392;28;20305;-78
2022/05/30 00:50:13;;;;;;;12.70;3.90;;;;;;;6.42;100.00;101220.94;1034926;28;20360;-79
2022/05/30 00:50:45;;;;;;;7.10;3.35;;;;;;;6.48;100.00;101221.03;1036013;28;20308;-78
2022/05/30 00:51:36;;;;;;;9.05;2.40;;;;;;;6.64;100.00;101213.94;1035062;28;20311;-78
2022/05/30 00:52:09;;;;;;;;;;;;;;;6.69;100.00;101217.69;1034757;28;20297;-76
2022/05/30 00:52:42;;;;;;;5.90;2.42;;;;;;;6.74;100.00;101214.50;1038390;28;19921;-79
2022/05/30 00:53:14;;;;;;;6.32;2.25;;;;;;;6.71;100.00;101213.03;1041768;28;20307;-78
2022/05/30 00:53:49;;;;;;;7.03;2.22;;;;;;;6.52;100.00;101210.91;1040358;28;20316;-78
2022/05/30 00:54:31;;;;;;;8.18;2.35;;;;;;;6.72;100.00;101208.56;1028857;28;20294;-78
2022/05/30 00:55:13;;;;;;;12.45;3.35;;;;;;;6.81;100.00;101216.22;1031087;28;20308;-78
2022/05/30 00:55:45;;;;;;;10.90;2.63;;;;;;;6.92;100.00;101211.50;1038322;28;20296;-77
2022/05/30 00:56:17;;;;;;;7.20;2.72;;;;;;;6.98;100.00;101211.56;1042964;28;20374;-77
2022/05/30 00:56:51;;;;;;;6.53;2.40;;;;;;;7.02;100.00;101212.03;1035856;28;20303;-77
2022/05/30 00:57:25;;;;;;;9.30;2.88;;;;;;;6.85;100.00;101215.84;1035896;28;20304;-77
2022/05/30 00:57:56;;;;;;;8.02;2.70;;;;;;;7.01;100.00;101210.38;1032774;28;20297;-78
2022/05/30 00:58:31;;;;;;;8.07;2.65;;;;;;;7.06;100.00;101214.13;1032863;28;20364;-78
2022/05/30 00:59:04;;;;;;;10.95;2.63;;;;;;;7.04;100.00;101215.31;1027422;28;20800;-78
2022/05/30 00:59:36;;;;;;;7.38;2.58;;;;;;;7.01;100.00;101210.38;1031665;28;20325;-77
2022/05/30 01:00:16;;;;;;;9.75;2.90;;;;;;;7.07;100.00;101218.41;1032144;28;20794;-77
2022/05/30 01:00:49;;;;;;;7.88;4.00;;;;;;;6.83;100.00;101216.03;1031909;28;20363;-78
2022/05/30 01:01:39;;;;;;;7.15;2.63;;;;;;;6.83;100.00;101210.75;1039918;28;20283;-77
2022/05/30 01:02:11;;;;;;;9.90;2.58;;;;;;;6.89;100.00;101212.69;1039679;28;20717;-77
2022/05/30 01:02:44;;;;;;;6.53;2.63;;;;;;;6.79;100.00;101212.13;1038706;28;20480;-78
2022/05/30 01:06:45;;;;;;;7.20;2.33;;;;;;;6.92;100.00;101219.44;1032838;28;20042;-77
2022/05/30 01:07:16;;;;;;;9.07;2.38;;;;;;;6.92;100.00;101228.19;1037244;28;20296;-78
2022/05/30 01:07:49;;;;;;;8.63;2.65;;;;;;;7.04;100.00;101224.06;1042918;28;20291;-77
2022/05/30 01:08:23;;;;;;;9.57;3.22;;;;;;;6.85;100.00;101227.28;1043611;28;20303;-77
2022/05/30 01:08:55;;;;;;;6.78;2.20;;;;;;;6.83;100.00;101223.97;1039628;28;20833;-78
2022/05/30 01:09:28;;;;;;;8.20;2.53;;;;;;;6.94;100.00;101223.53;1035660;28;20395;-78
2022/05/30 01:10:02;;;;;;;13.20;3.95;;;;;;;6.87;100.00;101230.59;1032987;28;20298;-76
2022/05/30 01:10:34;;;;;;;6.50;2.55;;;;;;;6.78;100.00;101226.34;1028936;28;20302;-78
2022/05/30 01:11:06;;;;;;;9.65;3.30;;;;;;;6.90;100.00;101224.09;1032237;28;20428;-78
2022/05/30 01:11:51;;;;;;;11.05;2.85;;;;;;;6.91;100.00;101217.78;1032266;28;20308;-77
2022/05/30 01:12:40;;;;;;;7.30;2.72;;;;;;;7.10;100.00;101223.34;1034003;28;20566;-78
2022/05/30 01:13:13;;;;;;;8.65;2.42;;;;;;;6.97;100.00;101230.28;1043911;28;20302;-78
2022/05/30 01:13:44;;;;;;;6.03;2.40;;;;;;;6.99;100.00;101223.00;1044468;28;20295;-77
2022/05/30 01:14:17;;;;;;;6.75;2.35;;;;;;;6.97;100.00;101225.00;1040418;28;20296;-77
2022/05/30 01:14:49;;;;;;;6.07;2.72;;;;;;;6.94;100.00;101225.38;1039796;28;20300;-78
2022/05/30 01:15:26;;;;;;;8.90;2.05;;;;;;;6.94;100.00;101220.91;1039574;28;20292;-78
2022/05/30 01:15:58;;;;;;;7.35;3.08;;;;;;;7.10;100.00;101220.69;1031604;28;20400;-78
2022/05/30 01:16:29;;;;;;;7.28;2.83;;;;;;;7.11;100.00;101222.31;1033425;28;20301;-79
2022/05/30 01:17:06;;;;;;;9.35;2.60;;;;;;;7.09;100.00;101216.41;1035802;28;20391;-78
2022/05/30 01:17:47;;;;;;;8.00;2.53;;;;;;;6.97;100.00;101219.69;1032552;28;20359;-78
2022/05/30 01:18:33;;;;;;;9.07;3.60;;;;;;;6.93;100.00;101216.59;1035924;28;20307;-78
2022/05/30 01:19:31;;;;;;;9.02;2.28;;;;;;;6.91;100.00;101218.63;1035700;28;20208;-78
2022/05/30 01:20:05;;;;;;;6.35;2.50;;;;;;;6.77;100.00;101214.13;1043270;28;20310;-77
2022/05/30 01:20:50;;;;;;;6.57;2.55;;;;;;;6.67;100.00;101218.88;1040068;28;20315;-78
2022/05/30 01:21:32;;;;;;;10.60;2.97;;;;;;;6.66;100.00;101223.34;1039827;28;20331;-78
2022/05/30 01:22:14;;;;;;;7.57;2.10;;;;;;;6.71;100.00;101215.69;1035591;28;20312;-77
2022/05/30 01:23:10;;;;;;;7.93;3.85;;;;;;;6.69;100.00;101217.69;1035500;28;20415;-78
2022/05/30 01:24:19;;;;;;;5.70;2.67;;;;;;;6.75;100.00;101221.44;1032546;28;20340;-77
2022/05/30 01:25:32;;;;;;;3.20;1.88;;;;;;;6.93;100.00;101219.25;1043280;28;20835;-78
2022/05/30 01:26:33;;;;;;;8.90;2.92;;;;;;;6.96;100.00;101218.88;1043194;28;20369;-78
2022/05/30 01:27:12;;;;;;;8.77;2.70;;;;;;;7.00;100.00;101224.63;1044004;28;20037;-77
2022/05/30 01:27:48;;;;;;;6.88;2.22;;;;;;;7.04;100.00;101216.13;1039736;28;20312;-78
2022/05/30 01:28:22;;;;;;;6.00;2.13;;;;;;;7.09;100.00;101216.41;1043810;28;20033;-77
2022/05/30 01:29:18;;;;;;;8.60;3.47;;;;;;;6.77;99.94;101222.88;1046971;28;20304;-77
2022/05/30 01:29:54;;;;;;;4.40;2.35;;;;;;;6.91;99.96;101220.44;1043780;28;20307;-77
2022/05/30 01:30:26;;;;;;;9.13;2.55;;;;;;;6.90;99.76;101219.63;1039131;28;20666;-78
2022/05/30 01:30:59;;;;;;;6.68;2.83;;;;;;;6.90;99.98;101224.09;1033803;28;20312;-77
2022/05/30 01:31:31;;;;;;;7.53;2.40;;;;;;;7.02;100.00;101214.66;1032585;28;20305;-77
2022/05/30 01:32:03;;;;;;;11.00;3.63;;;;;;;7.09;100.00;101221.69;1031462;28;20302;-77
2022/05/30 01:32:34;;;;;;;6.15;2.45;;;;;;;7.17;100.00;101219.97;1032732;28;20314;-77
2022/05/30 01:33:07;;;;;;;6.47;2.25;;;;;;;7.18;100.00;101216.31;1040400;28;20810;-78
2022/05/30 01:33:39;;;;;;;8.15;2.65;;;;;;;7.19;100.00;101218.78;1037202;28;20315;-77
2022/05/30 01:34:11;;;;;;;8.18;3.10;;;;;;;7.23;99.90;101214.75;1043017;28;20303;-77
2022/05/30 01:34:47;;;;;;;8.02;2.20;;;;;;;7.26;100.00;101210.91;1038524;28;20312;-77
2022/05/30 01:35:23;;;;;;;8.82;3.17;;;;;;;7.21;100.00;101211.47;1038029;28;20521;-78
2022/05/30 01:35:54;;;;;;;5.32;2.08;;;;;;;7.25;100.00;101209.25;1035830;28;20358;-77
2022/05/30 01:36:28;;;;;;;7.22;2.97;;;;;;;7.29;99.82;101211.34;1036027;28;20308;-76
2022/05/30 01:37:00;;;;;;;10.35;2.78;;;;;;;7.27;99.60;101212.53;1033509;28;20312;-77
2022/05/30 01:37:38;;;;;;;9.88;2.97;;;;;;;7.25;99.48;101204.78;1035065;28;21391;-77
2022/05/30 01:38:10;;;;;;;5.93;2.40;;;;;;;7.01;99.16;101215.69;1037883;28;20292;-77
2022/05/30 01:38:42;;;;;;;7.32;2.70;;;;;;;6.88;99.89;101211.03;1032854;28;20405;-77
2022/05/30 01:39:16;;;;;;;6.90;3.08;;;;;;;6.91;99.38;101204.56;1036414;28;20403;-77
2022/05/30 01:39:51;;;;;;;8.70;2.78;;;;;;;6.89;99.94;101210.03;1035276;28;20313;-77
2022/05/30 01:40:26;;;;;;;7.80;3.13;;;;;;;6.98;99.44;101214.22;1034684;28;20864;-77
2022/05/30 01:41:00;;;;;;;7.18;2.63;;;;;;;7.02;99.54;101207.53;1035534;28;20300;-77
2022/05/30 01:41:33;;;;;;;11.20;2.78;;;;;;;6.97;98.84;101214.41;1035073;28;20312;-77
2022/05/30 01:42:06;;;;;;;5.40;2.58;;;;;;;6.62;99.23;101210.66;1035683;28;20844;-77
2022/05/30 01:42:37;;;;;;;4.93;2.50;;;;;;;6.51;98.96;101204.78;1036436;28;20387;-77
2022/05/30 01:43:09;;;;;;;5.03;2.15;;;;;;;6.35;99.08;101209.44;1036302;28;20882;-77
2022/05/30 01:43:45;;;;;;;5.63;2.33;;;;;;;6.36;100.00;101205.78;1031962;28;20312;-77
2022/05/30 01:44:17;;;;;;;8.63;2.67;;;;;;;6.44;99.77;101211.00;1035192;28;20826;-77
2022/05/30 01:44:49;;;;;;;5.95;2.28;;;;;;;6.37;99.76;101210.88;1037044;28;20829;-77
2022/05/30 01:45:23;;;;;;;7.32;2.60;;;;;;;6.20;99.81;101218.13;1033772;28;20372;-77
2022/05/30 01:45:55;;;;;;;7.28;2.40;;;;;;;6.19;100.00;101205.09;1035529;28;20348;-77
2022/05/30 01:46:27;;;;;;;7.43;2.72;;;;;;;6.11;99.92;101213.09;1036658;28;20337;-77
2022/05/30 01:47:03;;;;;;;7.97;2.10;;;;;;;6.11;100.00;101206.00;1036994;28;20332;-77
2022/05/30 01:47:34;;;;;;;7.60;2.38;;;;;;;6.06;100.00;101213.63;1042891;28;20660;-77
2022/05/30 01:48:06;;;;;;;7.47;3.35;;;;;;;6.04;100.00;101206.88;1043956;28;20421;-77
2022/05/30 01:48:38;;;;;;;19.27;3.83;;;;;;;5.92;100.00;101211.75;1039952;28;20331;-77
2022/05/30 01:49:11;;;;;;;32.13;4.32;;;;;;;5.84;100.00;101209.97;1039852;28;20430;-77
2022/05/30 01:49:44;;;;;;;20.70;4.03;;;;;;;5.82;100.00;101206.69;1036684;28;20307;-77
2022/05/30 01:50:16;;;;;;;43.45;4.90;;;;;;;5.76;100.00;101204.75;1031886;28;20313;-77
2022/05/30 01:50:47;;;;;;;47.30;4.70;;;;;;;5.75;100.00;101200.47;1031030;28;20443;-77
2022/05/30 01:51:29;;;;;;;31.33;3.88;;;;;;;5.84;100.00;101207.31;1035631;28;20302;-77
2022/05/30 01:52:06;;;;;;;21.95;3.03;;;;;;;5.97;100.00;101209.38;1037683;28;20861;-77
2022/05/30 01:52:37;;;;;;;11.32;2.53;;;;;;;6.03;100.00;101199.94;1034983;28;20293;-77
2022/05/30 01:53:09;;;;;;;16.17;3.22;;;;;;;6.00;100.00;101210.84;1031164;28;20407;-77
2022/05/30 01:54:00;;;;;;;16.27;2.72;;;;;;;6.06;100.00;101204.88;1041941;28;20378;-77
2022/05/30 01:54:51;;;;;;;4.90;2.00;;;;;;;6.12;100.00;101209.47;1044622;28;20284;-77
2022/05/30 01:55:55;;;;;;;9.98;1.90;;;;;;;6.22;100.00;101201.25;1047718;28;20299;-77
2022/05/30 01:56:27;;;;;;;3.75;2.63;;;;;;;6.18;100.00;101203.44;1047259;28;20331;-77
2022/05/30 01:57:02;;;;;;;5.40;1.65;;;;;;;5.91;100.00;101202.19;1040710;28;20824;-77
2022/05/30 01:57:39;;;;;;;5.68;1.85;;;;;;;5.85;100.00;101206.31;1034206;28;21566;-76
2022/05/30 01:58:42;;;;;;;1.80;1.60;;;;;;;5.80;100.00;101202.56;1041180;28;20335;-76
2022/05/30 01:59:32;;;;;;;7.90;1.90;;;;;;;5.88;100.00;101202.50;1046764;28;20294;-76
2022/05/30 02:00:22;;;;;;;4.70;1.50;;;;;;;5.79;100.00;101207.03;1041490;28;20295;-76
2022/05/30 02:00:55;;;;;;;3.67;1.60;;;;;;;5.65;100.00;101207.78;1043776;28;20390;-77
2022/05/30 02:01:27;;;;;;;2.88;1.42;;;;;;;5.60;100.00;101204.84;1039297;28;20310;-77
2022/05/30 02:02:02;;;;;;;5.93;1.70;;;;;;;5.54;100.00;101198.44;1033949;28;20692;-76
2022/05/30 02:02:35;;;;;;;7.22;1.77;;;;;;;5.63;100.00;101201.84;1031394;28;20356;-76
2022/05/30 02:03:06;;;;;;;7.63;1.65;;;;;;;5.74;100.00;101198.78;1031674;28;20356;-77
2022/05/30 02:03:38;;;;;;;4.47;1.80;;;;;;;5.77;100.00;101198.47;1037638;28;20297;-76
2022/05/30 02:04:10;;;;;;;4.07;2.13;;;;;;;5.86;100.00;101201.84;1041287;28;20304;-76
2022/05/30 02:04:42;;;;;;;8.48;2.05;;;;;;;5.82;100.00;101201.38;1039897;28;20666;-77
2022/05/30 02:05:13;;;;;;;2.97;1.70;;;;;;;5.78;100.00;101196.63;1043877;28;20372;-77
2022/05/30 02:05:45;;;;;;;4.28;1.73;;;;;;;5.81;100.00;101202.38;1044059;28;20354;-77
2022/05/30 02:06:16;;;;;;;5.90;2.72;;;;;;;5.82;100.00;101196.09;1039635;28;20494;-77
2022/05/30 02:06:49;;;;;;;4.97;2.13;;;;;;;5.76;100.00;101202.09;1043933;28;20303;-77
2022/05/30 02:07:21;;;;;;;2.70;1.35;;;;;;;5.80;100.00;101192.81;1039774;28;20389;-77
2022/05/30 02:07:53;;;;;;;3.20;1.60;;;;;;;5.73;100.00;101194.50;1038622;28;20850;-77
2022/05/30 02:08:28;;;;;;;3.03;1.98;;;;;;;5.52;100.00;101199.59;1036179;28;21005;-76
2022/05/30 02:08:59;;;;;;;7.78;2.25;;;;;;;5.30;100.00;101203.03;1035916;28;20427;-77
2022/05/30 02:09:33;;;;;;;4.35;1.88;;;;;;;5.28;100.00;101200.56;1036794;28;20312;-77
2022/05/30 02:10:06;;;;;;;3.72;2.00;;;;;;;5.13;100.00;101197.81;1036153;28;20435;-76
2022/05/30 02:10:40;;;;;;;7.20;1.90;;;;;;;5.05;100.00;101195.22;1032454;28;20545;-76
2022/05/30 02:11:14;;;;;;;7.47;2.03;;;;;;;5.22;100.00;101196.78;1035755;28;20308;-76
2022/05/30 02:11:45;;;;;;;4.22;2.10;;;;;;;5.17;100.00;101193.81;1036214;28;20371;-77
2022/05/30 02:12:43;;;;;;;4.43;1.85;;;;;;;5.18;100.00;101190.19;1040835;28;20287;-76
2022/05/30 02:13:27;;;;;;;6.30;1.98;;;;;;;5.32;100.00;101185.19;1037923;28;20336;-76
2022/05/30 02:14:10;;;;;;;4.57;2.13;;;;;;;5.19;100.00;101191.81;1039611;28;20311;-76
2022/05/30 02:14:44;;;;;;;3.47;1.88;;;;;;;5.27;100.00;101188.34;1035534;28;20315;-77
2022/05/30 02:15:16;;;;;;;3.28;2.10;;;;;;;5.33;100.00;101194.75;1033695;28;20630;-77
2022/05/30 02:17:32;;;;;;;3.58;2.15;;;;;;;4.88;100.00;101194.44;1040593;28;20307;-76
2022/05/30 02:18:04;;;;;;;3.72;1.70;;;;;;;4.83;100.00;101196.75;1039665;28;20402;-76
2022/05/30 02:18:36;;;;;;;4.80;2.22;;;;;;;4.79;100.00;101194.63;1035269;28;20305;-76
2022/05/30 02:19:09;;;;;;;5.20;2.13;;;;;;;4.71;100.00;101197.31;1031628;28;20830;-76
2022/05/30 02:19:43;;;;;;;6.13;2.15;;;;;;;4.61;100.00;101189.56;1028931;28;20333;-77
2022/05/30 02:20:18;;;;;;;3.30;1.83;;;;;;;4.55;100.00;101188.44;1032946;28;20305;-77
2022/05/30 02:20:50;;;;;;;5.22;2.20;;;;;;;4.58;100.00;101188.09;1036861;28;20333;-76
2022/05/30 02:21:22;;;;;;;5.65;2.35;;;;;;;4.75;100.00;101193.34;1040879;28;20292;-76
2022/05/30 02:21:53;;;;;;;6.72;1.83;;;;;;;4.84;100.00;101187.03;1039757;28;20800;-76
2022/05/30 02:22:29;;;;;;;5.60;1.90;;;;;;;4.82;100.00;101191.66;1039512;28;20773;-76
2022/05/30 02:23:01;;;;;;;6.03;2.08;;;;;;;4.65;100.00;101190.88;1035172;28;20351;-76
2022/05/30 02:23:32;;;;;;;6.90;3.10;;;;;;;4.53;100.00;101185.13;1037275;28;20285;-77
2022/05/30 02:24:06;;;;;;;3.60;2.05;;;;;;;4.62;100.00;101188.56;1035348;28;20304;-76
2022/05/30 02:24:41;;;;;;;7.88;2.20;;;;;;;4.67;100.00;101190.72;1027924;28;20361;-76
2022/05/30 02:25:13;;;;;;;6.75;2.38;;;;;;;4.92;100.00;101184.34;1031254;28;20696;-76
2022/05/30 02:25:45;;;;;;;3.72;2.30;;;;;;;4.65;100.00;101194.31;1034243;28;20293;-76
2022/05/30 02:26:19;;;;;;;5.90;2.17;;;;;;;4.82;100.00;101199.56;1038017;28;20305;-76
2022/05/30 02:26:52;;;;;;;4.03;2.22;;;;;;;4.86;100.00;101195.59;1035280;28;20308;-76
2022/05/30 02:27:26;;;;;;;6.60;2.33;;;;;;;4.95;100.00;101200.69;1035827;28;20462;-77
2022/05/30 02:27:58;;;;;;;7.78;2.90;;;;;;;4.96;100.00;101190.97;1036626;28;20300;-76
2022/05/30 02:28:29;;;;;;;5.93;2.25;;;;;;;4.89;100.00;101200.53;1037149;28;20304;-76
2022/05/30 02:29:02;;;;;;;4.32;2.13;;;;;;;4.71;100.00;101195.50;1039281;28;20836;-76
2022/05/30 02:29:34;;;;;;;5.32;2.25;;;;;;;4.68;100.00;101193.19;1032129;28;20356;-76
2022/05/30 02:30:08;;;;;;;5.35;2.08;;;;;;;4.58;100.00;101193.38;1025914;28;20379;-77
2022/05/30 02:30:40;;;;;;;3.70;2.33;;;;;;;4.55;100.00;101188.44;1028260;28;20302;-76
2022/05/30 02:31:13;;;;;;;4.97;3.05;;;;;;;4.70;100.00;101196.50;1029382;28;20313;-76
2022/05/30 02:31:45;;;;;;;7.30;2.38;;;;;;;4.69;100.00;101196.66;1031904;28;20815;-76
2022/05/30 02:32:16;;;;;;;6.80;2.70;;;;;;;4.65;100.00;101191.69;1035318;28;20300;-76
2022/05/30 02:36:38;;;;;;;8.15;2.63;;;;;;;4.77;100.00;101194.00;1035743;28;20339;-76
2022/05/30 02:37:02;;;;;;;4.68;2.20;;;;;;;4.89;100.00;101192.63;1036688;28;20819;-76
2022/05/30 02:37:34;;;;;;;5.40;2.25;;;;;;;4.76;100.00;101194.97;1038746;28;20689;-76
2022/05/30 02:38:19;;;;;;;5.07;1.98;;;;;;;4.69;100.00;101192.19;1035387;28;20873;-76
2022/05/30 02:39:19;;;;;;;7.70;2.33;;;;;;;4.93;100.00;101199.19;1041085;28;20284;-76
2022/05/30 02:40:10;;;;;;;8.68;2.30;;;;;;;4.63;100.00;101193.69;1041788;28;20279;-76
2022/05/30 02:41:18;;;;;;;5.35;1.95;;;;;;;4.54;100.00;101192.06;1039412;28;20304;-76
2022/05/30 02:41:58;;;;;;;5.43;2.55;;;;;;;4.92;100.00;101200.19;1039231;28;20311;-76
2022/05/30 02:42:31;;;;;;;6.68;2.15;;;;;;;5.04;100.00;101198.84;1035376;28;20773;-76
2022/05/30 02:43:04;;;;;;;9.57;1.90;;;;;;;5.02;100.00;101195.56;1035516;28;20304;-76
2022/05/30 02:43:42;;;;;;;4.03;2.25;;;;;;;5.09;100.00;101190.41;1036896;28;20296;-76
2022/05/30 02:44:19;;;;;;;5.00;2.85;;;;;;;4.92;100.00;101190.44;1037237;28;20305;-76
2022/05/30 02:44:51;;;;;;;5.50;2.15;;;;;;;5.09;100.00;101191.22;1034820;28;20300;-76
2022/05/30 02:45:23;;;;;;;6.55;3.28;;;;;;;5.09;100.00;101191.22;1032358;28;20400;-76
2022/05/30 02:45:55;;;;;;;5.20;2.90;;;;;;;4.94;100.00;101199.06;1032504;28;20306;-76
2022/05/30 02:46:27;;;;;;;4.63;2.22;;;;;;;4.89;100.00;101192.63;1036900;28;20339;-76
2022/05/30 02:46:58;;;;;;;11.15;2.58;;;;;;;5.07;100.00;101198.50;1038530;28;20361;-76
2022/05/30 02:47:30;;;;;;;6.32;3.03;;;;;;;5.04;100.00;101196.19;1035980;28;20308;-76
2022/05/30 02:48:08;;;;;;;6.28;2.15;;;;;;;4.95;100.00;101194.59;1036771;28;20296;-76
2022/05/30 02:48:39;;;;;;;5.00;2.65;;;;;;;4.88;100.00;101194.44;1036334;28;20309;-76
2022/05/30 02:49:11;;;;;;;8.15;3.05;;;;;;;5.14;100.00;101201.28;1036420;28;20845;-76
2022/05/30 02:49:43;;;;;;;5.65;2.60;;;;;;;5.17;100.00;101198.28;1040144;28;20304;-76
2022/05/30 02:50:15;;;;;;;6.95;3.22;;;;;;;5.26;100.00;101197.28;1039533;28;20825;-76
2022/05/30 02:50:46;;;;;;;5.90;2.85;;;;;;;5.28;100.00;101195.28;1043436;28;20306;-76
2022/05/30 02:51:18;;;;;;;6.15;2.90;;;;;;;5.25;100.00;101191.16;1039574;28;20296;-76
2022/05/30 02:51:51;;;;;;;6.63;2.70;;;;;;;5.39;100.00;101191.41;1039735;28;20381;-76